sensor_id;sensor_type;location;lat;lon;timestamp;P1;durP1;ratioP1;P2;durP2;ratioP2
8066;SDS011;4076;48.076;9.118;2022-11-15T00:00:50;10.27;;;5.90;;
8066;SDS011;4076;48.076;9.118;2022-11-15T00:03:17;5.80;;;4.63;;
8066;SDS011;4076;48.076;9.118;2022-11-15T00:05:44;6.00;;;4.17;;
8066;SDS011;4076;48.076;9.118;2022-11-15T00:08:10;6.27;;;5.43;;
8066;SDS011;4076;48.076;9.118;2022-11-15T00:10:36;5.93;;;4.43;;
8066;SDS011;4076;48.076;9.118;2022-11-15T00:13:06;5.73;;;3.70;;
8066;SDS011;4076;48.076;9.118;2022-11-15T00:15:36;4.57;;;3.87;;
8066;SDS011;4076;48.076;9.118;2022-11-15T00:18:03;8.17;;;4.27;;
8066;SDS011;4076;48.076;9.118;2022-11-15T00:20:29;5.67;;;4.80;;
8066;SDS011;4076;48.076;9.118;2022-11-15T00:22:55;5.20;;;3.80;;
8066;SDS011;4076;48.076;9.118;2022-11-15T00:25:20;8.03;;;4.30;;
8066;SDS011;4076;48.076;9.118;2022-11-15T00:27:46;4.50;;;3.07;;
8066;SDS011;4076;48.076;9.118;2022-11-15T00:30:12;8.10;;;5.03;;
8066;SDS011;4076;48.076;9.118;2022-11-15T00:32:37;6.80;;;4.13;;
8066;SDS011;4076;48.076;9.118;2022-11-15T00:35:03;5.03;;;3.63;;
8066;SDS011;4076;48.076;9.118;2022-11-15T00:37:29;7.13;;;4.57;;
8066;SDS011;4076;48.076;9.118;2022-11-15T00:39:54;8.30;;;4.30;;
8066;SDS011;4076;48.076;9.118;2022-11-15T00:42:20;4.43;;;3.57;;
8066;SDS011;4076;48.076;9.118;2022-11-15T00:44:45;5.17;;;3.80;;
8066;SDS011;4076;48.076;9.118;2022-11-15T00:47:11;9.33;;;4.40;;
8066;SDS011;4076;48.076;9.118;2022-11-15T00:49:36;4.00;;;3.17;;
8066;SDS011;4076;48.076;9.118;2022-11-15T00:52:02;6.33;;;3.53;;
8066;SDS011;4076;48.076;9.118;2022-11-15T00:54:28;3.70;;;3.30;;
8066;SDS011;4076;48.076;9.118;2022-11-15T00:56:53;4.10;;;3.03;;
8066;SDS011;4076;48.076;9.118;2022-11-15T00:59:19;5.20;;;3.40;;
8066;SDS011;4076;48.076;9.118;2022-11-15T01:01:44;10.70;;;3.97;;
8066;SDS011;4076;48.076;9.118;2022-11-15T01:04:10;5.13;;;3.70;;
8066;SDS011;4076;48.076;9.118;2022-11-15T01:06:35;6.70;;;3.77;;
8066;SDS011;4076;48.076;9.118;2022-11-15T01:09:01;4.93;;;3.20;;
8066;SDS011;4076;48.076;9.118;2022-11-15T01:11:27;2.80;;;2.30;;
8066;SDS011;4076;48.076;9.118;2022-11-15T01:13:52;3.07;;;2.67;;
8066;SDS011;4076;48.076;9.118;2022-11-15T01:16:19;3.67;;;2.60;;
8066;SDS011;4076;48.076;9.118;2022-11-15T01:18:45;3.53;;;2.73;;
8066;SDS011;4076;48.076;9.118;2022-11-15T01:21:15;8.73;;;2.80;;
8066;SDS011;4076;48.076;9.118;2022-11-15T01:23:42;5.70;;;3.00;;
8066;SDS011;4076;48.076;9.118;2022-11-15T01:26:09;7.37;;;2.90;;
8066;SDS011;4076;48.076;9.118;2022-11-15T01:28:39;8.80;;;2.93;;
8066;SDS011;4076;48.076;9.118;2022-11-15T01:31:08;5.27;;;3.43;;
8066;SDS011;4076;48.076;9.118;2022-11-15T01:33:38;6.30;;;2.63;;
8066;SDS011;4076;48.076;9.118;2022-11-15T01:36:05;4.10;;;2.20;;
8066;SDS011;4076;48.076;9.118;2022-11-15T01:38:31;6.50;;;4.10;;
8066;SDS011;4076;48.076;9.118;2022-11-15T01:40:57;3.40;;;2.40;;
8066;SDS011;4076;48.076;9.118;2022-11-15T01:45:51;4.73;;;2.50;;
8066;SDS011;4076;48.076;9.118;2022-11-15T01:48:20;6.43;;;4.03;;
8066;SDS011;4076;48.076;9.118;2022-11-15T01:50:50;7.03;;;3.50;;
8066;SDS011;4076;48.076;9.118;2022-11-15T01:53:16;4.27;;;2.90;;
8066;SDS011;4076;48.076;9.118;2022-11-15T01:55:43;4.23;;;3.47;;
8066;SDS011;4076;48.076;9.118;2022-11-15T01:58:09;3.80;;;2.53;;
8066;SDS011;4076;48.076;9.118;2022-11-15T02:00:35;4.10;;;3.00;;
8066;SDS011;4076;48.076;9.118;2022-11-15T02:03:01;3.87;;;2.87;;
8066;SDS011;4076;48.076;9.118;2022-11-15T02:05:27;5.03;;;3.27;;
8066;SDS011;4076;48.076;9.118;2022-11-15T02:07:55;6.70;;;3.13;;
8066;SDS011;4076;48.076;9.118;2022-11-15T02:10:21;3.73;;;2.73;;
8066;SDS011;4076;48.076;9.118;2022-11-15T02:12:49;3.60;;;2.50;;
8066;SDS011;4076;48.076;9.118;2022-11-15T02:15:15;3.87;;;2.30;;
8066;SDS011;4076;48.076;9.118;2022-11-15T02:29:08;3.67;;;2.50;;
8066;SDS011;4076;48.076;9.118;2022-11-15T02:37:55;2.87;;;1.90;;
8066;SDS011;4076;48.076;9.118;2022-11-15T02:40:45;3.20;;;2.50;;
8066;SDS011;4076;48.076;9.118;2022-11-15T02:43:26;2.90;;;2.30;;
8066;SDS011;4076;48.076;9.118;2022-11-15T02:46:26;4.27;;;2.80;;
8066;SDS011;4076;48.076;9.118;2022-11-15T02:49:24;8.23;;;2.23;;
8066;SDS011;4076;48.076;9.118;2022-11-15T02:51:54;2.97;;;1.80;;
8066;SDS011;4076;48.076;9.118;2022-11-15T02:54:24;3.10;;;2.30;;
8066;SDS011;4076;48.076;9.118;2022-11-15T02:56:54;4.03;;;1.90;;
8066;SDS011;4076;48.076;9.118;2022-11-15T03:08:10;3.60;;;2.13;;
8066;SDS011;4076;48.076;9.118;2022-11-15T03:10:47;2.03;;;1.50;;
8066;SDS011;4076;48.076;9.118;2022-11-15T03:19:31;2.40;;;1.80;;
8066;SDS011;4076;48.076;9.118;2022-11-15T03:22:06;3.30;;;2.27;;
8066;SDS011;4076;48.076;9.118;2022-11-15T03:24:36;3.17;;;2.40;;
8066;SDS011;4076;48.076;9.118;2022-11-15T03:27:05;2.47;;;1.93;;
8066;SDS011;4076;48.076;9.118;2022-11-15T03:29:36;3.30;;;2.20;;
8066;SDS011;4076;48.076;9.118;2022-11-15T03:32:11;2.43;;;2.03;;
8066;SDS011;4076;48.076;9.118;2022-11-15T03:34:41;2.30;;;1.83;;
8066;SDS011;4076;48.076;9.118;2022-11-15T03:37:10;5.43;;;2.97;;
8066;SDS011;4076;48.076;9.118;2022-11-15T03:39:39;2.60;;;1.60;;
8066;SDS011;4076;48.076;9.118;2022-11-15T03:45:01;2.53;;;1.90;;
8066;SDS011;4076;48.076;9.118;2022-11-15T03:50:18;11.87;;;4.13;;
8066;SDS011;4076;48.076;9.118;2022-11-15T03:52:46;4.13;;;2.57;;
8066;SDS011;4076;48.076;9.118;2022-11-15T03:55:15;8.00;;;2.03;;
8066;SDS011;4076;48.076;9.118;2022-11-15T03:57:43;2.50;;;1.77;;
8066;SDS011;4076;48.076;9.118;2022-11-15T04:00:09;3.17;;;1.83;;
8066;SDS011;4076;48.076;9.118;2022-11-15T04:02:34;2.73;;;1.97;;
8066;SDS011;4076;48.076;9.118;2022-11-15T04:05:00;2.50;;;2.13;;
8066;SDS011;4076;48.076;9.118;2022-11-15T04:07:26;2.27;;;1.90;;
8066;SDS011;4076;48.076;9.118;2022-11-15T04:09:51;2.30;;;1.60;;
8066;SDS011;4076;48.076;9.118;2022-11-15T04:12:30;3.10;;;2.17;;
8066;SDS011;4076;48.076;9.118;2022-11-15T04:15:00;3.20;;;2.10;;
8066;SDS011;4076;48.076;9.118;2022-11-15T04:17:34;2.93;;;1.90;;
8066;SDS011;4076;48.076;9.118;2022-11-15T04:20:06;3.30;;;2.13;;
8066;SDS011;4076;48.076;9.118;2022-11-15T04:22:55;2.53;;;2.13;;
8066;SDS011;4076;48.076;9.118;2022-11-15T04:25:41;6.57;;;3.40;;
8066;SDS011;4076;48.076;9.118;2022-11-15T04:28:07;3.07;;;2.37;;
8066;SDS011;4076;48.076;9.118;2022-11-15T04:30:33;4.60;;;3.33;;
8066;SDS011;4076;48.076;9.118;2022-11-15T04:32:59;3.73;;;2.80;;
8066;SDS011;4076;48.076;9.118;2022-11-15T04:35:24;4.03;;;2.30;;
8066;SDS011;4076;48.076;9.118;2022-11-15T04:37:50;3.80;;;2.53;;
8066;SDS011;4076;48.076;9.118;2022-11-15T04:40:16;4.33;;;2.87;;
8066;SDS011;4076;48.076;9.118;2022-11-15T04:42:41;4.30;;;3.20;;
8066;SDS011;4076;48.076;9.118;2022-11-15T04:45:07;2.53;;;2.13;;
8066;SDS011;4076;48.076;9.118;2022-11-15T04:47:33;2.30;;;2.10;;
8066;SDS011;4076;48.076;9.118;2022-11-15T04:49:59;2.50;;;1.87;;
8066;SDS011;4076;48.076;9.118;2022-11-15T04:52:25;2.73;;;1.63;;
8066;SDS011;4076;48.076;9.118;2022-11-15T04:54:50;2.63;;;1.50;;
8066;SDS011;4076;48.076;9.118;2022-11-15T04:57:16;3.07;;;2.37;;
8066;SDS011;4076;48.076;9.118;2022-11-15T04:59:41;3.93;;;2.57;;
8066;SDS011;4076;48.076;9.118;2022-11-15T05:02:07;3.20;;;2.37;;
8066;SDS011;4076;48.076;9.118;2022-11-15T05:04:32;2.33;;;1.73;;
8066;SDS011;4076;48.076;9.118;2022-11-15T05:06:58;3.13;;;2.50;;
8066;SDS011;4076;48.076;9.118;2022-11-15T05:09:23;2.90;;;2.23;;
8066;SDS011;4076;48.076;9.118;2022-11-15T05:11:49;3.90;;;1.90;;
8066;SDS011;4076;48.076;9.118;2022-11-15T05:14:15;3.87;;;1.80;;
8066;SDS011;4076;48.076;9.118;2022-11-15T05:16:41;2.73;;;2.13;;
8066;SDS011;4076;48.076;9.118;2022-11-15T05:19:07;2.83;;;2.07;;
8066;SDS011;4076;48.076;9.118;2022-11-15T05:21:33;3.83;;;2.33;;
8066;SDS011;4076;48.076;9.118;2022-11-15T05:23:59;3.93;;;3.50;;
8066;SDS011;4076;48.076;9.118;2022-11-15T05:26:25;6.37;;;3.60;;
8066;SDS011;4076;48.076;9.118;2022-11-15T05:28:52;4.13;;;3.00;;
8066;SDS011;4076;48.076;9.118;2022-11-15T05:31:21;2.97;;;1.70;;
8066;SDS011;4076;48.076;9.118;2022-11-15T05:33:48;2.20;;;1.80;;
8066;SDS011;4076;48.076;9.118;2022-11-15T05:39:02;3.53;;;1.90;;
8066;SDS011;4076;48.076;9.118;2022-11-15T05:41:34;2.23;;;1.50;;
8066;SDS011;4076;48.076;9.118;2022-11-15T05:44:10;2.10;;;1.60;;
8066;SDS011;4076;48.076;9.118;2022-11-15T05:46:38;3.00;;;2.53;;
8066;SDS011;4076;48.076;9.118;2022-11-15T05:49:06;4.43;;;2.53;;
8066;SDS011;4076;48.076;9.118;2022-11-15T05:51:34;3.27;;;1.80;;
8066;SDS011;4076;48.076;9.118;2022-11-15T05:54:00;2.10;;;1.63;;
8066;SDS011;4076;48.076;9.118;2022-11-15T05:56:26;3.23;;;2.30;;
8066;SDS011;4076;48.076;9.118;2022-11-15T05:58:53;9.80;;;2.90;;
8066;SDS011;4076;48.076;9.118;2022-11-15T06:01:20;3.30;;;2.70;;
8066;SDS011;4076;48.076;9.118;2022-11-15T06:03:46;3.50;;;2.10;;
8066;SDS011;4076;48.076;9.118;2022-11-15T06:06:11;8.50;;;5.67;;
8066;SDS011;4076;48.076;9.118;2022-11-15T06:08:37;6.47;;;5.20;;
8066;SDS011;4076;48.076;9.118;2022-11-15T06:11:06;3.00;;;2.53;;
8066;SDS011;4076;48.076;9.118;2022-11-15T06:13:32;3.10;;;2.40;;
8066;SDS011;4076;48.076;9.118;2022-11-15T06:15:58;5.10;;;2.13;;
8066;SDS011;4076;48.076;9.118;2022-11-15T06:18:24;3.77;;;2.30;;
8066;SDS011;4076;48.076;9.118;2022-11-15T06:20:49;4.23;;;3.83;;
8066;SDS011;4076;48.076;9.118;2022-11-15T06:23:15;4.80;;;3.17;;
8066;SDS011;4076;48.076;9.118;2022-11-15T06:25:41;6.70;;;5.23;;
8066;SDS011;4076;48.076;9.118;2022-11-15T06:28:06;6.03;;;3.83;;
8066;SDS011;4076;48.076;9.118;2022-11-15T06:30:32;5.83;;;3.60;;
8066;SDS011;4076;48.076;9.118;2022-11-15T06:32:58;4.60;;;3.20;;
8066;SDS011;4076;48.076;9.118;2022-11-15T06:35:25;5.07;;;4.10;;
8066;SDS011;4076;48.076;9.118;2022-11-15T06:37:51;8.37;;;5.17;;
8066;SDS011;4076;48.076;9.118;2022-11-15T06:40:16;11.13;;;8.67;;
8066;SDS011;4076;48.076;9.118;2022-11-15T06:42:42;3.20;;;2.63;;
8066;SDS011;4076;48.076;9.118;2022-11-15T06:45:07;3.40;;;2.60;;
8066;SDS011;4076;48.076;9.118;2022-11-15T06:47:33;3.43;;;2.33;;
8066;SDS011;4076;48.076;9.118;2022-11-15T06:49:59;2.67;;;2.07;;
8066;SDS011;4076;48.076;9.118;2022-11-15T06:52:24;2.80;;;2.50;;
8066;SDS011;4076;48.076;9.118;2022-11-15T06:54:50;2.77;;;2.57;;
8066;SDS011;4076;48.076;9.118;2022-11-15T06:57:15;3.60;;;2.80;;
8066;SDS011;4076;48.076;9.118;2022-11-15T06:59:41;3.70;;;2.50;;
8066;SDS011;4076;48.076;9.118;2022-11-15T07:02:11;6.00;;;3.90;;
8066;SDS011;4076;48.076;9.118;2022-11-15T07:04:37;7.43;;;3.80;;
8066;SDS011;4076;48.076;9.118;2022-11-15T07:07:02;4.70;;;3.50;;
8066;SDS011;4076;48.076;9.118;2022-11-15T07:09:28;3.40;;;3.00;;
8066;SDS011;4076;48.076;9.118;2022-11-15T07:11:53;4.80;;;3.33;;
8066;SDS011;4076;48.076;9.118;2022-11-15T07:14:19;6.20;;;3.90;;
8066;SDS011;4076;48.076;9.118;2022-11-15T07:16:44;13.50;;;8.97;;
8066;SDS011;4076;48.076;9.118;2022-11-15T07:19:10;10.67;;;9.00;;
8066;SDS011;4076;48.076;9.118;2022-11-15T07:21:36;5.27;;;3.80;;
8066;SDS011;4076;48.076;9.118;2022-11-15T07:24:01;3.73;;;2.57;;
8066;SDS011;4076;48.076;9.118;2022-11-15T07:26:27;7.97;;;4.50;;
8066;SDS011;4076;48.076;9.118;2022-11-15T07:28:52;7.60;;;2.77;;
8066;SDS011;4076;48.076;9.118;2022-11-15T07:31:18;2.83;;;1.63;;
8066;SDS011;4076;48.076;9.118;2022-11-15T07:33:43;4.03;;;2.83;;
8066;SDS011;4076;48.076;9.118;2022-11-15T07:36:09;4.90;;;2.13;;
8066;SDS011;4076;48.076;9.118;2022-11-15T07:38:35;3.87;;;2.70;;
8066;SDS011;4076;48.076;9.118;2022-11-15T07:41:01;3.50;;;2.00;;
8066;SDS011;4076;48.076;9.118;2022-11-15T07:43:28;2.70;;;2.00;;
8066;SDS011;4076;48.076;9.118;2022-11-15T07:45:54;3.07;;;2.00;;
8066;SDS011;4076;48.076;9.118;2022-11-15T07:48:20;2.90;;;1.90;;
8066;SDS011;4076;48.076;9.118;2022-11-15T07:50:46;2.20;;;1.50;;
8066;SDS011;4076;48.076;9.118;2022-11-15T07:53:12;1.97;;;1.43;;
8066;SDS011;4076;48.076;9.118;2022-11-15T07:55:39;1.90;;;1.40;;
8066;SDS011;4076;48.076;9.118;2022-11-15T07:58:06;5.50;;;3.53;;
8066;SDS011;4076;48.076;9.118;2022-11-15T08:00:33;4.17;;;3.77;;
8066;SDS011;4076;48.076;9.118;2022-11-15T08:05:28;4.80;;;2.87;;
8066;SDS011;4076;48.076;9.118;2022-11-15T08:07:57;2.43;;;2.13;;
8066;SDS011;4076;48.076;9.118;2022-11-15T08:10:23;4.73;;;3.70;;
8066;SDS011;4076;48.076;9.118;2022-11-15T08:12:56;13.77;;;9.23;;
8066;SDS011;4076;48.076;9.118;2022-11-15T08:15:28;9.00;;;6.50;;
8066;SDS011;4076;48.076;9.118;2022-11-15T08:17:55;7.17;;;5.70;;
8066;SDS011;4076;48.076;9.118;2022-11-15T08:20:25;9.03;;;4.30;;
8066;SDS011;4076;48.076;9.118;2022-11-15T08:22:55;6.03;;;3.40;;
8066;SDS011;4076;48.076;9.118;2022-11-15T08:25:21;4.63;;;4.00;;
8066;SDS011;4076;48.076;9.118;2022-11-15T08:27:47;9.70;;;5.77;;
8066;SDS011;4076;48.076;9.118;2022-11-15T08:30:15;8.13;;;6.10;;
8066;SDS011;4076;48.076;9.118;2022-11-15T08:32:41;2.90;;;2.20;;
8066;SDS011;4076;48.076;9.118;2022-11-15T08:35:07;4.10;;;2.07;;
8066;SDS011;4076;48.076;9.118;2022-11-15T08:37:33;3.30;;;2.40;;
8066;SDS011;4076;48.076;9.118;2022-11-15T08:39:58;3.67;;;2.20;;
8066;SDS011;4076;48.076;9.118;2022-11-15T08:42:24;4.93;;;2.00;;
8066;SDS011;4076;48.076;9.118;2022-11-15T08:44:50;2.73;;;2.00;;
8066;SDS011;4076;48.076;9.118;2022-11-15T08:47:15;3.17;;;2.37;;
8066;SDS011;4076;48.076;9.118;2022-11-15T08:49:41;2.80;;;1.83;;
8066;SDS011;4076;48.076;9.118;2022-11-15T08:52:06;4.37;;;2.13;;
8066;SDS011;4076;48.076;9.118;2022-11-15T08:54:32;3.87;;;2.87;;
8066;SDS011;4076;48.076;9.118;2022-11-15T08:56:57;2.97;;;2.00;;
8066;SDS011;4076;48.076;9.118;2022-11-15T08:59:23;2.97;;;2.30;;
8066;SDS011;4076;48.076;9.118;2022-11-15T09:01:49;3.80;;;2.60;;
8066;SDS011;4076;48.076;9.118;2022-11-15T09:04:14;8.17;;;2.93;;
8066;SDS011;4076;48.076;9.118;2022-11-15T09:06:40;2.37;;;2.13;;
8066;SDS011;4076;48.076;9.118;2022-11-15T09:09:05;4.13;;;3.33;;
8066;SDS011;4076;48.076;9.118;2022-11-15T09:11:31;3.63;;;2.20;;
8066;SDS011;4076;48.076;9.118;2022-11-15T09:13:56;3.70;;;2.63;;
8066;SDS011;4076;48.076;9.118;2022-11-15T09:16:23;3.07;;;2.43;;
8066;SDS011;4076;48.076;9.118;2022-11-15T09:18:49;3.03;;;2.73;;
8066;SDS011;4076;48.076;9.118;2022-11-15T09:21:14;4.37;;;3.20;;
8066;SDS011;4076;48.076;9.118;2022-11-15T09:23:40;3.50;;;3.07;;
8066;SDS011;4076;48.076;9.118;2022-11-15T09:26:05;3.50;;;3.20;;
8066;SDS011;4076;48.076;9.118;2022-11-15T09:28:32;3.90;;;3.10;;
8066;SDS011;4076;48.076;9.118;2022-11-15T09:30:59;4.00;;;3.20;;
8066;SDS011;4076;48.076;9.118;2022-11-15T09:33:25;4.37;;;2.50;;
8066;SDS011;4076;48.076;9.118;2022-11-15T09:35:51;2.83;;;2.33;;
8066;SDS011;4076;48.076;9.118;2022-11-15T09:38:17;4.50;;;3.03;;
8066;SDS011;4076;48.076;9.118;2022-11-15T09:40:43;3.07;;;2.20;;
8066;SDS011;4076;48.076;9.118;2022-11-15T09:48:30;3.10;;;2.20;;
8066;SDS011;4076;48.076;9.118;2022-11-15T09:51:09;4.43;;;2.50;;
8066;SDS011;4076;48.076;9.118;2022-11-15T09:54:00;3.80;;;3.20;;
8066;SDS011;4076;48.076;9.118;2022-11-15T09:56:42;5.30;;;3.37;;
8066;SDS011;4076;48.076;9.118;2022-11-15T10:04:29;4.90;;;3.10;;
8066;SDS011;4076;48.076;9.118;2022-11-15T10:12:14;4.90;;;3.83;;
8066;SDS011;4076;48.076;9.118;2022-11-15T10:14:40;3.67;;;3.10;;
8066;SDS011;4076;48.076;9.118;2022-11-15T10:20:22;4.70;;;4.03;;
8066;SDS011;4076;48.076;9.118;2022-11-15T10:22:59;3.20;;;2.90;;
8066;SDS011;4076;48.076;9.118;2022-11-15T10:25:26;3.80;;;3.40;;
8066;SDS011;4076;48.076;9.118;2022-11-15T10:27:54;3.13;;;2.83;;
8066;SDS011;4076;48.076;9.118;2022-11-15T10:30:23;3.50;;;2.70;;
8066;SDS011;4076;48.076;9.118;2022-11-15T10:32:55;3.17;;;2.87;;
8066;SDS011;4076;48.076;9.118;2022-11-15T10:35:29;5.00;;;3.70;;
8066;SDS011;4076;48.076;9.118;2022-11-15T10:38:04;3.63;;;3.27;;
8066;SDS011;4076;48.076;9.118;2022-11-15T10:40:34;4.80;;;2.73;;
8066;SDS011;4076;48.076;9.118;2022-11-15T10:43:19;5.50;;;3.87;;
8066;SDS011;4076;48.076;9.118;2022-11-15T10:45:45;3.77;;;3.37;;
8066;SDS011;4076;48.076;9.118;2022-11-15T10:50:37;10.33;;;6.20;;
8066;SDS011;4076;48.076;9.118;2022-11-15T10:53:50;12.80;;;4.87;;
8066;SDS011;4076;48.076;9.118;2022-11-15T10:56:07;3.70;;;3.30;;
8066;SDS011;4076;48.076;9.118;2022-11-15T10:58:41;3.77;;;3.40;;
8066;SDS011;4076;48.076;9.118;2022-11-15T11:06:28;4.53;;;2.97;;
8066;SDS011;4076;48.076;9.118;2022-11-15T11:08:58;5.23;;;3.50;;
8066;SDS011;4076;48.076;9.118;2022-11-15T11:11:45;5.73;;;3.30;;
8066;SDS011;4076;48.076;9.118;2022-11-15T11:14:36;4.17;;;3.77;;
8066;SDS011;4076;48.076;9.118;2022-11-15T11:24:58;5.80;;;3.67;;
8066;SDS011;4076;48.076;9.118;2022-11-15T11:27:38;6.97;;;4.10;;
8066;SDS011;4076;48.076;9.118;2022-11-15T11:30:42;6.23;;;4.77;;
8066;SDS011;4076;48.076;9.118;2022-11-15T11:35:59;5.87;;;4.80;;
8066;SDS011;4076;48.076;9.118;2022-11-15T11:44:26;6.27;;;4.07;;
8066;SDS011;4076;48.076;9.118;2022-11-15T11:46:55;6.60;;;4.67;;
8066;SDS011;4076;48.076;9.118;2022-11-15T11:49:32;5.20;;;3.20;;
8066;SDS011;4076;48.076;9.118;2022-11-15T11:52:26;5.27;;;4.07;;
8066;SDS011;4076;48.076;9.118;2022-11-15T11:57:41;10.63;;;5.33;;
8066;SDS011;4076;48.076;9.118;2022-11-15T12:00:27;6.03;;;5.40;;
8066;SDS011;4076;48.076;9.118;2022-11-15T12:06:01;6.97;;;5.80;;
8066;SDS011;4076;48.076;9.118;2022-11-15T12:08:41;9.60;;;7.70;;
8066;SDS011;4076;48.076;9.118;2022-11-15T12:11:38;9.40;;;6.70;;
8066;SDS011;4076;48.076;9.118;2022-11-15T12:14:12;9.53;;;7.53;;
8066;SDS011;4076;48.076;9.118;2022-11-15T12:17:01;8.90;;;6.30;;
8066;SDS011;4076;48.076;9.118;2022-11-15T12:19:28;7.70;;;6.47;;
8066;SDS011;4076;48.076;9.118;2022-11-15T12:24:29;5.93;;;4.50;;
8066;SDS011;4076;48.076;9.118;2022-11-15T12:27:06;10.07;;;6.30;;
8066;SDS011;4076;48.076;9.118;2022-11-15T12:29:47;9.13;;;5.63;;
8066;SDS011;4076;48.076;9.118;2022-11-15T12:32:24;6.53;;;5.90;;
8066;SDS011;4076;48.076;9.118;2022-11-15T12:34:53;5.83;;;3.90;;
8066;SDS011;4076;48.076;9.118;2022-11-15T12:47:51;7.33;;;5.13;;
8066;SDS011;4076;48.076;9.118;2022-11-15T12:50:18;5.83;;;3.83;;
8066;SDS011;4076;48.076;9.118;2022-11-15T12:58:50;6.43;;;5.10;;
8066;SDS011;4076;48.076;9.118;2022-11-15T13:06:47;24.67;;;18.10;;
8066;SDS011;4076;48.076;9.118;2022-11-15T13:11:59;16.13;;;11.47;;
8066;SDS011;4076;48.076;9.118;2022-11-15T13:14:54;11.93;;;9.80;;
8066;SDS011;4076;48.076;9.118;2022-11-15T13:17:24;26.03;;;17.07;;
8066;SDS011;4076;48.076;9.118;2022-11-15T13:22:24;20.03;;;14.63;;
8066;SDS011;4076;48.076;9.118;2022-11-15T13:35:52;11.10;;;6.93;;
8066;SDS011;4076;48.076;9.118;2022-11-15T13:40:49;7.57;;;6.03;;
8066;SDS011;4076;48.076;9.118;2022-11-15T13:48:31;9.90;;;5.57;;
8066;SDS011;4076;48.076;9.118;2022-11-15T13:50:58;7.10;;;5.20;;
8066;SDS011;4076;48.076;9.118;2022-11-15T13:53:26;8.60;;;7.37;;
8066;SDS011;4076;48.076;9.118;2022-11-15T13:55:52;10.07;;;7.07;;
8066;SDS011;4076;48.076;9.118;2022-11-15T13:58:20;11.00;;;8.10;;
8066;SDS011;4076;48.076;9.118;2022-11-15T14:00:46;10.53;;;7.37;;
8066;SDS011;4076;48.076;9.118;2022-11-15T14:03:15;8.03;;;6.40;;
8066;SDS011;4076;48.076;9.118;2022-11-15T14:05:41;9.93;;;8.70;;
8066;SDS011;4076;48.076;9.118;2022-11-15T14:10:49;15.03;;;13.43;;
8066;SDS011;4076;48.076;9.118;2022-11-15T14:13:31;11.60;;;9.67;;
8066;SDS011;4076;48.076;9.118;2022-11-15T14:16:16;7.80;;;6.97;;
8066;SDS011;4076;48.076;9.118;2022-11-15T14:18:48;10.07;;;7.23;;
8066;SDS011;4076;48.076;9.118;2022-11-15T14:21:16;8.60;;;7.70;;
8066;SDS011;4076;48.076;9.118;2022-11-15T14:23:42;8.20;;;6.43;;
8066;SDS011;4076;48.076;9.118;2022-11-15T14:26:25;9.93;;;7.23;;
8066;SDS011;4076;48.076;9.118;2022-11-15T14:28:54;8.83;;;7.20;;
8066;SDS011;4076;48.076;9.118;2022-11-15T14:31:19;10.20;;;7.40;;
8066;SDS011;4076;48.076;9.118;2022-11-15T14:33:46;11.10;;;8.60;;
8066;SDS011;4076;48.076;9.118;2022-11-15T14:36:19;7.60;;;6.40;;
8066;SDS011;4076;48.076;9.118;2022-11-15T14:38:46;9.70;;;6.50;;
8066;SDS011;4076;48.076;9.118;2022-11-15T14:43:45;10.97;;;6.50;;
8066;SDS011;4076;48.076;9.118;2022-11-15T14:46:11;5.90;;;4.80;;
8066;SDS011;4076;48.076;9.118;2022-11-15T14:48:36;7.77;;;6.13;;
8066;SDS011;4076;48.076;9.118;2022-11-15T14:51:02;8.20;;;6.10;;
8066;SDS011;4076;48.076;9.118;2022-11-15T14:53:28;8.47;;;6.20;;
8066;SDS011;4076;48.076;9.118;2022-11-15T14:55:53;9.17;;;6.37;;
8066;SDS011;4076;48.076;9.118;2022-11-15T14:58:19;9.57;;;6.10;;
8066;SDS011;4076;48.076;9.118;2022-11-15T15:00:44;8.53;;;6.87;;
8066;SDS011;4076;48.076;9.118;2022-11-15T15:03:10;10.60;;;7.37;;
8066;SDS011;4076;48.076;9.118;2022-11-15T15:05:36;6.07;;;5.47;;
8066;SDS011;4076;48.076;9.118;2022-11-15T15:08:07;9.23;;;6.27;;
8066;SDS011;4076;48.076;9.118;2022-11-15T15:10:34;8.50;;;7.57;;
8066;SDS011;4076;48.076;9.118;2022-11-15T15:13:02;8.13;;;6.10;;
8066;SDS011;4076;48.076;9.118;2022-11-15T15:15:33;10.60;;;7.70;;
8066;SDS011;4076;48.076;9.118;2022-11-15T15:18:00;9.90;;;7.43;;
8066;SDS011;4076;48.076;9.118;2022-11-15T15:20:26;8.73;;;7.23;;
8066;SDS011;4076;48.076;9.118;2022-11-15T15:22:52;7.67;;;6.40;;
8066;SDS011;4076;48.076;9.118;2022-11-15T15:25:22;7.33;;;5.83;;
8066;SDS011;4076;48.076;9.118;2022-11-15T15:27:48;7.90;;;6.70;;
8066;SDS011;4076;48.076;9.118;2022-11-15T15:30:14;9.67;;;6.80;;
8066;SDS011;4076;48.076;9.118;2022-11-15T15:32:40;13.97;;;9.47;;
8066;SDS011;4076;48.076;9.118;2022-11-15T15:35:05;12.80;;;9.40;;
8066;SDS011;4076;48.076;9.118;2022-11-15T15:37:35;8.97;;;7.47;;
8066;SDS011;4076;48.076;9.118;2022-11-15T15:40:01;7.43;;;6.50;;
8066;SDS011;4076;48.076;9.118;2022-11-15T15:42:26;9.20;;;6.83;;
8066;SDS011;4076;48.076;9.118;2022-11-15T15:44:52;8.83;;;7.33;;
8066;SDS011;4076;48.076;9.118;2022-11-15T15:47:21;9.63;;;7.10;;
8066;SDS011;4076;48.076;9.118;2022-11-15T15:49:48;11.37;;;8.97;;
8066;SDS011;4076;48.076;9.118;2022-11-15T15:52:15;7.67;;;6.90;;
8066;SDS011;4076;48.076;9.118;2022-11-15T15:54:41;9.10;;;7.87;;
8066;SDS011;4076;48.076;9.118;2022-11-15T15:57:07;8.50;;;6.37;;
8066;SDS011;4076;48.076;9.118;2022-11-15T15:59:33;8.20;;;6.50;;
8066;SDS011;4076;48.076;9.118;2022-11-15T16:01:59;9.70;;;7.33;;
8066;SDS011;4076;48.076;9.118;2022-11-15T16:04:25;8.93;;;6.90;;
8066;SDS011;4076;48.076;9.118;2022-11-15T16:06:51;10.17;;;7.57;;
8066;SDS011;4076;48.076;9.118;2022-11-15T16:09:18;7.37;;;6.27;;
8066;SDS011;4076;48.076;9.118;2022-11-15T16:12:07;7.10;;;4.67;;
8066;SDS011;4076;48.076;9.118;2022-11-15T16:14:33;8.67;;;6.87;;
8066;SDS011;4076;48.076;9.118;2022-11-15T16:16:58;7.03;;;5.83;;
8066;SDS011;4076;48.076;9.118;2022-11-15T16:19:24;8.17;;;5.60;;
8066;SDS011;4076;48.076;9.118;2022-11-15T16:21:49;8.20;;;6.10;;
8066;SDS011;4076;48.076;9.118;2022-11-15T16:24:16;8.03;;;5.87;;
8066;SDS011;4076;48.076;9.118;2022-11-15T16:26:42;9.27;;;6.97;;
8066;SDS011;4076;48.076;9.118;2022-11-15T16:29:08;7.43;;;5.17;;
8066;SDS011;4076;48.076;9.118;2022-11-15T16:31:35;5.20;;;4.60;;
8066;SDS011;4076;48.076;9.118;2022-11-15T16:34:01;8.33;;;5.30;;
8066;SDS011;4076;48.076;9.118;2022-11-15T16:36:27;12.40;;;10.07;;
8066;SDS011;4076;48.076;9.118;2022-11-15T16:38:55;9.17;;;6.80;;
8066;SDS011;4076;48.076;9.118;2022-11-15T16:41:20;9.47;;;6.43;;
8066;SDS011;4076;48.076;9.118;2022-11-15T16:43:46;9.03;;;5.93;;
8066;SDS011;4076;48.076;9.118;2022-11-15T16:46:23;5.97;;;5.37;;
8066;SDS011;4076;48.076;9.118;2022-11-15T16:48:50;8.63;;;7.27;;
8066;SDS011;4076;48.076;9.118;2022-11-15T16:51:16;8.20;;;5.70;;
8066;SDS011;4076;48.076;9.118;2022-11-15T16:53:42;10.70;;;6.50;;
8066;SDS011;4076;48.076;9.118;2022-11-15T16:56:24;5.63;;;4.93;;
8066;SDS011;4076;48.076;9.118;2022-11-15T16:58:54;7.20;;;5.47;;
8066;SDS011;4076;48.076;9.118;2022-11-15T17:01:23;6.47;;;4.10;;
8066;SDS011;4076;48.076;9.118;2022-11-15T17:03:50;5.17;;;4.03;;
8066;SDS011;4076;48.076;9.118;2022-11-15T17:06:16;5.17;;;4.40;;
8066;SDS011;4076;48.076;9.118;2022-11-15T17:08:43;9.43;;;7.67;;
8066;SDS011;4076;48.076;9.118;2022-11-15T17:11:10;9.50;;;6.60;;
8066;SDS011;4076;48.076;9.118;2022-11-15T17:13:42;10.83;;;5.90;;
8066;SDS011;4076;48.076;9.118;2022-11-15T17:16:09;5.13;;;3.50;;
8066;SDS011;4076;48.076;9.118;2022-11-15T17:18:37;5.60;;;3.70;;
8066;SDS011;4076;48.076;9.118;2022-11-15T17:21:06;7.57;;;5.83;;
8066;SDS011;4076;48.076;9.118;2022-11-15T17:23:36;6.73;;;4.50;;
8066;SDS011;4076;48.076;9.118;2022-11-15T17:26:02;6.30;;;5.07;;
8066;SDS011;4076;48.076;9.118;2022-11-15T17:28:29;8.00;;;5.17;;
8066;SDS011;4076;48.076;9.118;2022-11-15T17:30:58;7.00;;;5.60;;
8066;SDS011;4076;48.076;9.118;2022-11-15T17:33:25;7.03;;;4.70;;
8066;SDS011;4076;48.076;9.118;2022-11-15T17:35:58;7.67;;;4.70;;
8066;SDS011;4076;48.076;9.118;2022-11-15T17:38:26;9.67;;;7.73;;
8066;SDS011;4076;48.076;9.118;2022-11-15T17:40:59;8.80;;;7.90;;
8066;SDS011;4076;48.076;9.118;2022-11-15T17:43:34;8.40;;;6.70;;
8066;SDS011;4076;48.076;9.118;2022-11-15T17:46:03;4.80;;;3.60;;
8066;SDS011;4076;48.076;9.118;2022-11-15T17:48:30;11.10;;;8.60;;
8066;SDS011;4076;48.076;9.118;2022-11-15T17:50:57;7.17;;;6.47;;
8066;SDS011;4076;48.076;9.118;2022-11-15T17:53:25;9.17;;;6.97;;